Time;durP1;ratioP1;P1;durP2;ratioP2;P2;SDS_P1;SDS_P2;PMS_P1;PMS_P2;Temp;Humidity;BMP_temperature;BMP_pressure;BME280_temperature;BME280_humidity;BME280_pressure;Samples;Min_cycle;Max_cycle;Signal;HPM_P1;HPM_P2
2022/04/21 00:00:04;;;;;;;11.02;7.15;;;;;;;;;;5084678;28;20013;-79
2022/04/21 00:02:30;;;;;;;8.93;6.97;;;;;;;;;;5085014;28;20027;-79
2022/04/21 00:04:56;;;;;;;11.90;7.72;;;;;;;;;;5085858;28;20024;-76
2022/04/21 00:07:23;;;;;;;25.08;12.98;;;;;;;;;;5082672;28;20045;-75
2022/04/21 00:09:49;;;;;;;11.80;7.15;;;;;;;;;;5106383;28;20040;-78
2022/04/21 00:12:15;;;;;;;9.57;7.03;;;;;;;;;;5084739;28;20020;-75
2022/04/21 00:14:41;;;;;;;9.75;7.05;;;;;;;;;;5084247;28;20056;-77
2022/04/21 00:17:08;;;;;;;23.83;15.98;;;;;;;;;;5087550;28;20147;-77
2022/04/21 00:19:35;;;;;;;29.88;19.63;;;;;;;;;;5084242;28;20119;-76
2022/04/21 00:24:46;;;;;;;23.55;14.85;;;;;;;;;;5084642;28;20109;-76
2022/04/21 00:27:12;;;;;;;17.90;11.20;;;;;;;;;;5088645;28;20031;-77
2022/04/21 00:29:39;;;;;;;16.33;9.63;;;;;;;;;;5080940;28;20039;-76
2022/04/21 00:32:05;;;;;;;15.75;9.70;;;;;;;;;;5080693;28;20049;-79
2022/04/21 00:34:34;;;;;;;15.80;9.35;;;;;;;;;;5082958;28;20028;-78
2022/04/21 00:37:01;;;;;;;14.25;9.18;;;;;;;;;;5079934;28;20071;-78
2022/04/21 00:39:27;;;;;;;22.80;10.90;;;;;;;;;;5094125;28;20265;-77
2022/04/21 00:41:59;;;;;;;23.40;11.93;;;;;;;;;;5086697;28;20033;-77
2022/04/21 00:44:26;;;;;;;26.05;11.40;;;;;;;;;;5086432;28;20044;-77
2022/04/21 00:46:53;;;;;;;19.33;10.02;;;;;;;;;;5083457;28;20040;-77
2022/04/21 00:49:20;;;;;;;18.13;9.85;;;;;;;;;;5084213;28;20039;-77
2022/04/21 00:51:46;;;;;;;21.13;11.30;;;;;;;;;;5081690;28;20029;-77
2022/04/21 00:54:13;;;;;;;17.98;8.98;;;;;;;;;;5082165;28;20043;-79
2022/04/21 00:56:40;;;;;;;24.17;10.90;;;;;;;;;;5081972;28;20132;-77
2022/04/21 00:59:07;;;;;;;17.15;9.68;;;;;;;;;;5082664;28;20028;-77
2022/04/21 01:04:19;;;;;;;16.60;9.43;;;;;;;;;;5078089;28;20233;-79
2022/04/21 01:06:45;;;;;;;16.83;9.38;;;;;;;;;;5091875;28;20088;-78
2022/04/21 01:09:15;;;;;;;13.63;8.05;;;;;;;;;;5092159;28;20029;-75
2022/04/21 01:11:42;;;;;;;13.10;7.72;;;;;;;;;;5103997;28;20051;-75
2022/04/21 01:14:09;;;;;;;12.40;8.63;;;;;;;;;;5080376;28;20041;-77
2022/04/21 01:16:35;;;;;;;13.75;8.02;;;;;;;;;;5087270;28;20044;-77
2022/04/21 01:19:02;;;;;;;13.70;7.55;;;;;;;;;;5082521;28;20094;-76
2022/04/21 01:21:28;;;;;;;12.18;7.70;;;;;;;;;;5086777;28;20028;-75
2022/04/21 01:23:54;;;;;;;14.10;8.02;;;;;;;;;;5084412;28;20029;-77
2022/04/21 01:26:20;;;;;;;24.08;9.40;;;;;;;;;;5086693;28;20047;-75
2022/04/21 01:28:47;;;;;;;12.40;7.55;;;;;;;;;;5083512;28;20092;-75
2022/04/21 01:31:13;;;;;;;13.07;8.68;;;;;;;;;;5085028;28;20510;-74
2022/04/21 01:33:40;;;;;;;12.57;8.10;;;;;;;;;;5084376;28;20175;-75
2022/04/21 01:36:06;;;;;;;14.93;7.38;;;;;;;;;;5081310;28;20039;-73
2022/04/21 01:41:17;;;;;;;13.33;8.33;;;;;;;;;;5078706;28;20051;-75
2022/04/21 01:43:43;;;;;;;15.55;8.10;;;;;;;;;;5081361;28;20037;-75
2022/04/21 01:46:10;;;;;;;13.05;7.35;;;;;;;;;;5082993;28;20028;-75
2022/04/21 01:48:36;;;;;;;16.08;8.43;;;;;;;;;;5083253;28;20500;-75
2022/04/21 01:51:03;;;;;;;15.57;8.32;;;;;;;;;;5081219;28;20032;-74
2022/04/21 01:53:29;;;;;;;12.02;7.88;;;;;;;;;;5077926;28;20040;-75
2022/04/21 01:55:55;;;;;;;16.23;7.50;;;;;;;;;;5084722;28;20029;-75
2022/04/21 01:58:21;;;;;;;13.38;6.75;;;;;;;;;;5083614;28;20036;-73
2022/04/21 02:00:47;;;;;;;15.07;8.00;;;;;;;;;;5085396;28;20029;-75
2022/04/21 02:03:17;;;;;;;14.52;8.10;;;;;;;;;;5082896;28;20086;-75
2022/04/21 02:05:43;;;;;;;14.50;8.45;;;;;;;;;;5098311;28;20028;-76
2022/04/21 02:08:09;;;;;;;18.48;10.32;;;;;;;;;;5082552;28;20025;-75
2022/04/21 02:10:35;;;;;;;17.65;7.97;;;;;;;;;;5088754;28;20115;-77
2022/04/21 02:13:02;;;;;;;14.88;8.50;;;;;;;;;;5080943;28;20103;-74
2022/04/21 02:15:28;;;;;;;14.55;8.07;;;;;;;;;;5079253;28;20045;-76
2022/04/21 02:17:54;;;;;;;13.88;7.80;;;;;;;;;;5079734;28;20036;-76
2022/04/21 02:20:20;;;;;;;13.85;8.82;;;;;;;;;;5083034;28;20031;-75
2022/04/21 02:22:47;;;;;;;15.77;8.77;;;;;;;;;;5078858;28;20027;-75
2022/04/21 02:25:15;;;;;;;17.98;9.73;;;;;;;;;;5080156;28;20088;-74
2022/04/21 02:27:42;;;;;;;16.05;9.68;;;;;;;;;;5083401;28;20099;-75
2022/04/21 02:30:09;;;;;;;17.13;10.27;;;;;;;;;;5082629;28;20154;-77
2022/04/21 02:32:36;;;;;;;16.50;10.07;;;;;;;;;;5085887;28;20025;-76
2022/04/21 02:35:02;;;;;;;16.65;10.75;;;;;;;;;;5084634;28;20414;-74
2022/04/21 02:37:29;;;;;;;18.77;11.50;;;;;;;;;;5083393;28;20036;-76
2022/04/21 02:39:55;;;;;;;21.40;11.32;;;;;;;;;;5079716;28;20029;-74
2022/04/21 02:42:25;;;;;;;29.13;13.20;;;;;;;;;;5074700;28;20059;-74
2022/04/21 02:44:51;;;;;;;22.35;12.98;;;;;;;;;;5082314;28;20029;-74
2022/04/21 02:47:17;;;;;;;21.60;12.85;;;;;;;;;;5081674;28;20119;-76
2022/04/21 02:49:46;;;;;;;29.95;12.82;;;;;;;;;;5079587;28;20031;-75
2022/04/21 02:52:12;;;;;;;22.67;13.95;;;;;;;;;;5078535;28;20029;-77
2022/04/21 02:57:24;;;;;;;21.90;13.68;;;;;;;;;;5080987;28;20048;-74
2022/04/21 02:59:50;;;;;;;25.02;14.50;;;;;;;;;;5078643;28;20076;-76
2022/04/21 03:02:16;;;;;;;27.88;14.73;;;;;;;;;;5084836;28;20017;-75
2022/04/21 03:04:42;;;;;;;25.30;14.00;;;;;;;;;;5084213;28;20024;-75
2022/04/21 03:07:08;;;;;;;25.23;14.88;;;;;;;;;;5085895;28;20383;-76
2022/04/21 03:09:34;;;;;;;28.13;15.10;;;;;;;;;;5084037;28;20029;-75
2022/04/21 03:12:02;;;;;;;31.52;17.40;;;;;;;;;;5081981;28;20032;-73
2022/04/21 03:14:28;;;;;;;30.05;16.73;;;;;;;;;;5090205;28;20043;-74
2022/04/21 03:16:54;;;;;;;31.35;16.33;;;;;;;;;;5083121;28;20047;-76
2022/04/21 03:19:20;;;;;;;27.88;17.08;;;;;;;;;;5083297;28;20028;-76
2022/04/21 03:24:31;;;;;;;35.20;17.75;;;;;;;;;;5082259;28;20054;-74
2022/04/21 03:26:57;;;;;;;31.33;16.42;;;;;;;;;;5081943;28;20053;-77
2022/04/21 03:29:24;;;;;;;29.55;17.20;;;;;;;;;;5083230;28;20028;-76
2022/04/21 03:31:50;;;;;;;41.00;18.60;;;;;;;;;;5082653;28;20030;-77
2022/04/21 03:34:17;;;;;;;36.50;17.23;;;;;;;;;;5082630;28;20024;-76
2022/04/21 03:36:47;;;;;;;33.78;18.63;;;;;;;;;;5083623;28;20037;-75
2022/04/21 03:39:13;;;;;;;31.75;18.55;;;;;;;;;;5083013;28;20021;-77
2022/04/21 03:41:40;;;;;;;36.58;17.92;;;;;;;;;;5084309;28;20085;-76
2022/04/21 03:44:06;;;;;;;38.05;19.25;;;;;;;;;;5080049;28;20039;-75
2022/04/21 03:46:32;;;;;;;32.28;17.85;;;;;;;;;;5084869;28;20046;-76
2022/04/21 03:48:58;;;;;;;32.55;17.63;;;;;;;;;;5083424;28;20062;-76
2022/04/21 03:51:27;;;;;;;32.22;18.40;;;;;;;;;;5087473;28;20037;-75
2022/04/21 03:53:56;;;;;;;30.55;18.77;;;;;;;;;;5083219;28;20066;-74
2022/04/21 03:56:22;;;;;;;35.85;19.13;;;;;;;;;;5088602;28;20115;-75
2022/04/21 03:58:49;;;;;;;43.22;18.55;;;;;;;;;;5078437;28;20035;-73
2022/04/21 04:01:16;;;;;;;38.47;18.38;;;;;;;;;;5081933;28;20113;-75
2022/04/21 04:03:43;;;;;;;31.80;18.38;;;;;;;;;;5081427;28;20236;-75
2022/04/21 04:11:39;;;;;;;39.17;17.75;;;;;;;;;;5078600;28;20104;-75
2022/04/21 04:14:06;;;;;;;37.35;19.33;;;;;;;;;;5083401;28;20040;-75
2022/04/21 04:16:36;;;;;;;28.08;17.70;;;;;;;;;;5078608;28;20132;-77
2022/04/21 04:19:10;;;;;;;36.13;18.30;;;;;;;;;;5086865;28;20025;-76
2022/04/21 04:21:37;;;;;;;30.45;16.85;;;;;;;;;;5083881;28;20025;-75
2022/04/21 04:24:03;;;;;;;32.30;17.13;;;;;;;;;;5081282;28;20044;-75
2022/04/21 04:26:30;;;;;;;33.17;16.40;;;;;;;;;;5080805;28;20145;-74
2022/04/21 04:28:57;;;;;;;27.20;16.17;;;;;;;;;;5081600;28;20038;-76
2022/04/21 04:31:23;;;;;;;28.10;16.58;;;;;;;;;;5082310;28;20039;-74
2022/04/21 04:33:49;;;;;;;32.25;16.40;;;;;;;;;;5077640;28;20035;-74
2022/04/21 04:36:16;;;;;;;23.75;15.65;;;;;;;;;;5082508;28;20029;-75
2022/04/21 04:38:43;;;;;;;31.98;17.52;;;;;;;;;;5080982;28;20024;-74
2022/04/21 04:43:54;;;;;;;26.10;14.95;;;;;;;;;;5080116;28;20544;-75
2022/04/21 04:46:35;;;;;;;28.48;14.63;;;;;;;;;;5081988;28;20032;-74
2022/04/21 04:49:05;;;;;;;27.30;15.60;;;;;;;;;;5082998;28;20060;-74
2022/04/21 04:51:31;;;;;;;25.05;14.30;;;;;;;;;;5081048;28;20059;-74
2022/04/21 04:53:58;;;;;;;23.63;13.77;;;;;;;;;;5080007;28;20032;-75
2022/04/21 04:56:26;;;;;;;24.08;14.02;;;;;;;;;;5079875;28;20028;-76
2022/04/21 04:58:53;;;;;;;24.08;13.73;;;;;;;;;;5080606;28;20128;-74
2022/04/21 05:01:21;;;;;;;22.98;12.85;;;;;;;;;;5074833;28;20035;-72
2022/04/21 05:03:48;;;;;;;19.30;12.85;;;;;;;;;;5080911;28;20035;-74
2022/04/21 05:06:14;;;;;;;22.85;13.57;;;;;;;;;;5081609;28;20025;-76
2022/04/21 05:08:40;;;;;;;21.98;12.88;;;;;;;;;;5082010;28;20043;-73
2022/04/21 05:11:06;;;;;;;22.73;12.75;;;;;;;;;;5080229;28;20065;-76
2022/04/21 05:13:32;;;;;;;26.70;11.75;;;;;;;;;;5084343;28;20040;-74
2022/04/21 05:15:58;;;;;;;20.67;12.20;;;;;;;;;;5086117;28;20086;-75
2022/04/21 05:18:24;;;;;;;18.75;11.93;;;;;;;;;;5076958;28;20031;-73
2022/04/21 05:20:50;;;;;;;18.77;11.38;;;;;;;;;;5079117;28;20047;-72
2022/04/21 05:23:17;;;;;;;18.02;10.30;;;;;;;;;;5080483;28;20094;-74
2022/04/21 05:25:43;;;;;;;16.27;10.25;;;;;;;;;;5073506;28;20048;-75
2022/04/21 05:28:10;;;;;;;18.30;10.88;;;;;;;;;;5078143;28;20033;-75
2022/04/21 05:33:25;;;;;;;18.02;10.20;;;;;;;;;;5080995;28;20040;-75
2022/04/21 05:35:51;;;;;;;16.25;10.10;;;;;;;;;;5079901;28;20040;-75
2022/04/21 05:38:19;;;;;;;14.18;9.13;;;;;;;;;;5081021;28;20028;-75
2022/04/21 05:40:45;;;;;;;16.58;9.35;;;;;;;;;;5081602;28;20028;-75
2022/04/21 05:43:14;;;;;;;14.43;9.32;;;;;;;;;;5074950;28;20051;-75
2022/04/21 05:45:41;;;;;;;15.48;8.70;;;;;;;;;;5081821;28;20035;-74
2022/04/21 05:48:08;;;;;;;15.35;9.90;;;;;;;;;;5080750;28;20039;-75
2022/04/21 05:50:34;;;;;;;18.08;10.00;;;;;;;;;;5081997;28;20069;-74
2022/04/21 05:53:02;;;;;;;16.13;9.68;;;;;;;;;;5082043;28;20027;-74
2022/04/21 05:55:34;;;;;;;16.98;9.52;;;;;;;;;;5086310;28;20051;-75
2022/04/21 05:58:00;;;;;;;17.67;9.55;;;;;;;;;;5082649;28;20046;-75
2022/04/21 06:00:26;;;;;;;19.00;11.07;;;;;;;;;;5083315;28;20445;-75
2022/04/21 06:02:52;;;;;;;15.63;9.32;;;;;;;;;;5090902;28;20033;-75
2022/04/21 06:05:18;;;;;;;14.95;8.55;;;;;;;;;;5082261;28;20120;-75
2022/04/21 06:07:44;;;;;;;16.85;8.93;;;;;;;;;;5083963;28;20044;-72
2022/04/21 06:10:10;;;;;;;15.32;9.55;;;;;;;;;;5080369;28;20032;-77
2022/04/21 06:12:36;;;;;;;19.10;9.40;;;;;;;;;;5085426;28;20094;-75
2022/04/21 06:15:03;;;;;;;13.98;9.07;;;;;;;;;;5079228;28;20036;-75
2022/04/21 06:17:29;;;;;;;14.48;8.38;;;;;;;;;;5084118;28;20032;-74
2022/04/21 06:19:56;;;;;;;14.35;8.45;;;;;;;;;;5077923;28;20039;-74
2022/04/21 06:22:23;;;;;;;13.93;8.48;;;;;;;;;;5083446;28;20013;-74
2022/04/21 06:24:49;;;;;;;12.55;8.25;;;;;;;;;;5076255;28;20016;-75
2022/04/21 06:27:15;;;;;;;13.40;8.80;;;;;;;;;;5066290;28;20105;-74
2022/04/21 06:29:41;;;;;;;13.13;8.32;;;;;;;;;;5067105;28;20024;-75
2022/04/21 06:32:07;;;;;;;13.13;8.23;;;;;;;;;;5069192;28;20070;-75
2022/04/21 06:34:34;;;;;;;12.02;7.38;;;;;;;;;;5070584;28;20033;-75
2022/04/21 06:37:00;;;;;;;20.60;7.95;;;;;;;;;;5076784;28;20067;-76
2022/04/21 06:39:26;;;;;;;13.77;7.15;;;;;;;;;;5072247;28;20021;-75
2022/04/21 06:41:53;;;;;;;9.77;6.65;;;;;;;;;;5074609;28;20086;-74
2022/04/21 06:49:49;;;;;;;15.13;7.47;;;;;;;;;;5069907;28;20090;-74
2022/04/21 06:52:15;;;;;;;8.80;6.18;;;;;;;;;;5066389;28;20235;-75
2022/04/21 06:54:41;;;;;;;10.77;6.45;;;;;;;;;;5071249;28;20127;-74
2022/04/21 06:57:10;;;;;;;12.48;6.05;;;;;;;;;;5067006;28;20028;-74
2022/04/21 06:59:37;;;;;;;9.82;6.40;;;;;;;;;;5074087;28;20043;-74
2022/04/21 07:02:04;;;;;;;12.73;6.55;;;;;;;;;;5071460;28;20056;-74
2022/04/21 07:04:30;;;;;;;10.68;6.40;;;;;;;;;;5072247;28;20036;-76
2022/04/21 07:06:56;;;;;;;9.93;6.03;;;;;;;;;;5073969;28;20036;-76
2022/04/21 07:09:22;;;;;;;13.77;6.30;;;;;;;;;;5075383;28;20068;-74
2022/04/21 07:11:49;;;;;;;12.35;7.07;;;;;;;;;;5073766;28;20090;-74
2022/04/21 07:14:15;;;;;;;9.65;6.72;;;;;;;;;;5075891;28;20048;-75
2022/04/21 07:16:41;;;;;;;16.02;8.20;;;;;;;;;;5074735;28;20501;-74
2022/04/21 07:19:07;;;;;;;10.20;5.57;;;;;;;;;;5074434;28;20107;-75
2022/04/21 07:21:33;;;;;;;9.07;6.07;;;;;;;;;;5075677;28;20013;-74
2022/04/21 07:23:59;;;;;;;10.27;5.75;;;;;;;;;;5075244;28;20025;-74
2022/04/21 07:26:25;;;;;;;8.50;6.03;;;;;;;;;;5073120;28;20067;-74
2022/04/21 07:28:51;;;;;;;9.20;5.70;;;;;;;;;;5077037;28;20028;-74
2022/04/21 07:31:17;;;;;;;9.13;5.32;;;;;;;;;;5075541;28;20060;-75
2022/04/21 07:33:43;;;;;;;8.32;5.20;;;;;;;;;;5071579;28;20260;-75
2022/04/21 07:36:09;;;;;;;12.35;5.88;;;;;;;;;;5075477;28;20013;-74
2022/04/21 07:38:36;;;;;;;8.25;5.07;;;;;;;;;;5074220;28;20123;-75
2022/04/21 07:41:02;;;;;;;10.35;4.82;;;;;;;;;;5071455;28;20146;-75
2022/04/21 07:43:28;;;;;;;11.30;5.30;;;;;;;;;;5068054;28;20035;-75
2022/04/21 07:45:55;;;;;;;6.95;5.05;;;;;;;;;;5066744;28;20606;-75
2022/04/21 07:48:21;;;;;;;9.68;4.90;;;;;;;;;;5071634;28;20032;-75
2022/04/21 07:50:47;;;;;;;10.38;4.90;;;;;;;;;;5070564;28;20770;-75
2022/04/21 07:53:13;;;;;;;8.77;5.30;;;;;;;;;;5071543;28;20353;-75
2022/04/21 07:55:39;;;;;;;13.00;4.90;;;;;;;;;;5076238;28;20064;-73
2022/04/21 07:58:06;;;;;;;9.00;4.60;;;;;;;;;;5071156;28;20454;-75
2022/04/21 08:00:34;;;;;;;10.55;5.13;;;;;;;;;;5067630;28;20028;-76
2022/04/21 08:03:00;;;;;;;7.68;4.57;;;;;;;;;;5069934;28;20017;-75
2022/04/21 08:05:26;;;;;;;10.95;4.55;;;;;;;;;;5071311;28;20116;-74
2022/04/21 08:07:52;;;;;;;10.48;4.88;;;;;;;;;;5089946;28;20050;-78
2022/04/21 08:10:19;;;;;;;14.48;5.57;;;;;;;;;;5070671;28;20044;-75
2022/04/21 08:12:47;;;;;;;9.13;4.68;;;;;;;;;;5072694;28;20112;-76
2022/04/21 08:15:21;;;;;;;7.00;4.25;;;;;;;;;;5075821;28;20032;-76
2022/04/21 08:17:47;;;;;;;5.40;4.10;;;;;;;;;;5075357;28;20146;-76
2022/04/21 08:20:14;;;;;;;14.38;4.55;;;;;;;;;;5077119;28;20031;-76
2022/04/21 08:22:40;;;;;;;7.65;4.13;;;;;;;;;;5074248;28;20029;-77
2022/04/21 08:33:22;;;;;;;7.28;3.83;;;;;;;;;;5067334;28;20556;-77
2022/04/21 08:35:49;;;;;;;7.63;4.25;;;;;;;;;;5076545;28;20470;-76
2022/04/21 08:38:15;;;;;;;6.30;3.80;;;;;;;;;;5077424;28;20020;-76
2022/04/21 08:40:53;;;;;;;5.95;4.10;;;;;;;;;;5071890;28;20135;-76
2022/04/21 08:43:19;;;;;;;4.95;3.90;;;;;;;;;;5077831;28;20502;-76
2022/04/21 08:45:46;;;;;;;8.07;3.90;;;;;;;;;;5085016;28;20389;-76
2022/04/21 08:48:13;;;;;;;11.38;4.30;;;;;;;;;;5070506;28;20060;-77
2022/04/21 08:50:40;;;;;;;7.70;4.03;;;;;;;;;;5076329;28;20131;-75
2022/04/21 08:53:06;;;;;;;5.93;3.95;;;;;;;;;;5076362;28;20032;-76
2022/04/21 08:55:33;;;;;;;5.75;4.28;;;;;;;;;;5063912;28;20056;-75
2022/04/21 08:57:59;;;;;;;9.27;4.78;;;;;;;;;;5077627;28;20024;-77
2022/04/21 09:00:26;;;;;;;6.20;4.32;;;;;;;;;;5074131;28;20482;-77
2022/04/21 09:02:53;;;;;;;7.13;3.88;;;;;;;;;;5074859;28;20033;-75
2022/04/21 09:05:22;;;;;;;9.35;3.85;;;;;;;;;;5073488;28;20055;-76
2022/04/21 09:07:52;;;;;;;7.78;3.50;;;;;;;;;;5074887;28;20020;-74
2022/04/21 09:10:19;;;;;;;9.10;4.45;;;;;;;;;;5078403;28;20056;-75
2022/04/21 09:12:45;;;;;;;6.43;3.70;;;;;;;;;;5076569;28;20103;-76
2022/04/21 09:15:14;;;;;;;6.80;4.05;;;;;;;;;;5075872;28;20033;-76
2022/04/21 09:17:44;;;;;;;9.40;3.80;;;;;;;;;;5076618;28;20051;-76
2022/04/21 09:20:10;;;;;;;6.68;4.10;;;;;;;;;;5081464;28;20025;-76
2022/04/21 09:22:40;;;;;;;6.15;4.32;;;;;;;;;;5081799;28;20100;-76
2022/04/21 09:25:06;;;;;;;7.90;4.75;;;;;;;;;;5081029;28;20020;-76
2022/04/21 09:27:45;;;;;;;9.63;4.65;;;;;;;;;;5074342;28;20040;-76
2022/04/21 09:30:15;;;;;;;8.57;4.80;;;;;;;;;;5076351;28;20025;-75
2022/04/21 09:32:54;;;;;;;6.35;4.95;;;;;;;;;;5077139;28;20100;-76
2022/04/21 09:35:28;;;;;;;7.68;4.63;;;;;;;;;;5078914;28;20067;-76
2022/04/21 09:37:58;;;;;;;6.72;4.00;;;;;;;;;;5080999;28;20032;-75
2022/04/21 09:40:25;;;;;;;9.77;4.10;;;;;;;;;;5078421;28;20036;-76
2022/04/21 09:42:55;;;;;;;11.07;4.20;;;;;;;;;;5078274;28;20080;-75
2022/04/21 09:48:20;;;;;;;5.20;3.65;;;;;;;;;;5075229;28;20074;-75
2022/04/21 09:50:57;;;;;;;7.20;4.93;;;;;;;;;;5071159;28;20038;-76
2022/04/21 09:53:24;;;;;;;5.00;3.47;;;;;;;;;;5078201;28;20100;-76
2022/04/21 09:55:51;;;;;;;6.00;3.20;;;;;;;;;;5078288;28;20037;-76
2022/04/21 09:58:17;;;;;;;5.10;3.40;;;;;;;;;;5080661;28;20031;-76
2022/04/21 10:00:44;;;;;;;7.25;3.15;;;;;;;;;;5079108;28;20027;-76
2022/04/21 10:03:11;;;;;;;7.20;4.00;;;;;;;;;;5077609;28;20036;-77
2022/04/21 10:05:39;;;;;;;5.78;3.65;;;;;;;;;;5078505;28;20051;-76
2022/04/21 10:08:07;;;;;;;6.18;3.38;;;;;;;;;;5080290;28;20020;-76
2022/04/21 10:10:34;;;;;;;8.05;3.70;;;;;;;;;;5074045;28;20040;-76
2022/04/21 10:13:00;;;;;;;5.25;3.70;;;;;;;;;;5076837;28;20051;-76
2022/04/21 10:15:28;;;;;;;5.82;4.20;;;;;;;;;;5077923;28;20115;-76
2022/04/21 10:17:54;;;;;;;5.78;3.72;;;;;;;;;;5082035;28;20131;-76
2022/04/21 10:20:24;;;;;;;7.28;4.05;;;;;;;;;;5078241;28;20025;-76
2022/04/21 10:22:51;;;;;;;7.97;4.90;;;;;;;;;;5072931;28;20522;-75
2022/04/21 10:25:18;;;;;;;6.45;4.30;;;;;;;;;;5077942;28;20033;-77
2022/04/21 10:27:49;;;;;;;9.98;4.25;;;;;;;;;;5078866;28;20023;-75
2022/04/21 10:30:15;;;;;;;6.13;4.35;;;;;;;;;;5078269;28;20093;-76
2022/04/21 10:32:47;;;;;;;6.88;4.20;;;;;;;;;;5076873;28;20030;-76
2022/04/21 10:35:17;;;;;;;8.73;4.30;;;;;;;;;;5074902;28;20093;-77
2022/04/21 10:37:43;;;;;;;6.00;4.68;;;;;;;;;;5078290;28;20074;-76
2022/04/21 10:40:10;;;;;;;6.93;4.80;;;;;;;;;;5078055;28;20094;-77
2022/04/21 10:42:55;;;;;;;6.50;5.03;;;;;;;;;;5076121;28;20070;-74
2022/04/21 10:45:24;;;;;;;7.40;4.70;;;;;;;;;;5069103;28;20043;-74
2022/04/21 10:48:08;;;;;;;8.50;4.80;;;;;;;;;;5074965;28;20028;-76
2022/04/21 10:50:34;;;;;;;8.80;5.93;;;;;;;;;;5075500;28;20402;-76
2022/04/21 10:58:33;;;;;;;8.07;5.00;;;;;;;;;;5072222;28;20406;-76
2022/04/21 11:01:11;;;;;;;8.35;5.30;;;;;;;;;;5076769;28;20035;-78
2022/04/21 11:03:38;;;;;;;9.88;5.78;;;;;;;;;;5066176;28;20095;-77
2022/04/21 11:06:05;;;;;;;9.73;5.25;;;;;;;;;;5075139;28;20060;-75
2022/04/21 11:08:31;;;;;;;15.13;5.80;;;;;;;;;;5072606;28;20029;-76
2022/04/21 11:10:57;;;;;;;9.45;5.05;;;;;;;;;;5075277;28;20032;-77
2022/04/21 11:13:39;;;;;;;10.07;5.10;;;;;;;;;;5070791;28;20039;-76
2022/04/21 11:16:06;;;;;;;8.73;6.00;;;;;;;;;;5073144;28;20028;-75
2022/04/21 11:18:32;;;;;;;10.05;6.35;;;;;;;;;;5072170;28;20633;-75
2022/04/21 11:21:17;;;;;;;8.63;5.72;;;;;;;;;;5077839;28;20036;-76
2022/04/21 11:23:43;;;;;;;10.38;6.00;;;;;;;;;;5076351;28;20020;-76
2022/04/21 11:26:09;;;;;;;11.55;6.55;;;;;;;;;;5076736;28;20028;-76
2022/04/21 11:28:36;;;;;;;10.63;6.15;;;;;;;;;;5079553;28;20029;-76
2022/04/21 11:31:03;;;;;;;10.93;6.80;;;;;;;;;;5074595;28;20106;-76
2022/04/21 11:33:32;;;;;;;8.30;5.95;;;;;;;;;;5075187;28;20059;-76
2022/04/21 11:36:12;;;;;;;11.15;6.50;;;;;;;;;;5075887;28;20111;-76
2022/04/21 11:38:47;;;;;;;10.02;6.10;;;;;;;;;;5072979;28;20034;-76
2022/04/21 11:41:15;;;;;;;9.50;5.68;;;;;;;;;;5076185;28;20092;-76
2022/04/21 11:43:48;;;;;;;8.50;6.55;;;;;;;;;;5090253;28;20024;-76
2022/04/21 11:46:14;;;;;;;10.20;6.38;;;;;;;;;;5078036;28;20039;-75
2022/04/21 11:48:56;;;;;;;10.35;6.35;;;;;;;;;;5079220;28;20039;-75
2022/04/21 11:51:24;;;;;;;10.23;6.65;;;;;;;;;;5074693;28;20048;-75
2022/04/21 11:53:51;;;;;;;11.55;7.15;;;;;;;;;;5079758;28;20036;-76
2022/04/21 11:56:17;;;;;;;10.75;5.50;;;;;;;;;;5074699;28;20032;-76
2022/04/21 11:58:43;;;;;;;10.32;6.20;;;;;;;;;;5077364;28;20021;-76
2022/04/21 12:06:47;;;;;;;16.35;7.15;;;;;;;;;;5072925;28;20092;-76
2022/04/21 12:09:14;;;;;;;12.60;6.70;;;;;;;;;;5077600;28;20028;-75
2022/04/21 12:11:41;;;;;;;12.13;7.18;;;;;;;;;;5075318;28;20020;-76
2022/04/21 12:14:08;;;;;;;13.23;6.45;;;;;;;;;;5076841;28;20049;-75
2022/04/21 12:16:41;;;;;;;15.95;6.82;;;;;;;;;;5065863;28;20079;-75
2022/04/21 12:19:11;;;;;;;13.38;6.90;;;;;;;;;;5076770;28;20470;-77
2022/04/21 12:21:37;;;;;;;15.43;7.60;;;;;;;;;;5074127;28;20486;-73
2022/04/21 12:24:17;;;;;;;10.90;7.43;;;;;;;;;;5088481;28;20525;-77
2022/04/21 12:26:52;;;;;;;9.43;6.70;;;;;;;;;;5071850;28;20020;-75
2022/04/21 12:29:19;;;;;;;13.15;8.00;;;;;;;;;;5073297;28;20513;-76
2022/04/21 12:31:52;;;;;;;15.27;7.03;;;;;;;;;;5083888;28;20611;-76
2022/04/21 12:34:27;;;;;;;12.95;7.00;;;;;;;;;;5075993;28;20066;-76
2022/04/21 12:36:54;;;;;;;14.90;7.47;;;;;;;;;;5072953;28;20029;-76
2022/04/21 12:39:20;;;;;;;15.52;7.45;;;;;;;;;;5076769;28;20077;-76
2022/04/21 12:41:46;;;;;;;9.48;6.63;;;;;;;;;;5070581;28;20029;-76
2022/04/21 12:44:13;;;;;;;12.70;7.72;;;;;;;;;;5073311;28;20027;-77
2022/04/21 12:46:41;;;;;;;11.35;7.03;;;;;;;;;;5089211;28;20040;-77
2022/04/21 12:49:07;;;;;;;14.15;8.00;;;;;;;;;;5075723;28;20040;-76
2022/04/21 12:51:34;;;;;;;14.55;8.23;;;;;;;;;;5075645;28;20481;-76
2022/04/21 12:54:00;;;;;;;12.70;7.72;;;;;;;;;;5077786;28;20090;-76
2022/04/21 12:56:33;;;;;;;9.32;7.18;;;;;;;;;;5073744;28;20102;-76
2022/04/21 12:59:00;;;;;;;15.82;8.82;;;;;;;;;;5073403;28;20017;-76
2022/04/21 13:01:26;;;;;;;13.70;7.22;;;;;;;;;;5078524;28;20031;-76
2022/04/21 13:03:52;;;;;;;13.02;7.57;;;;;;;;;;5076958;28;20041;-76
2022/04/21 13:06:28;;;;;;;13.50;7.63;;;;;;;;;;5078572;28;20031;-76
2022/04/21 13:08:54;;;;;;;13.68;7.32;;;;;;;;;;5081644;28;20035;-76
2022/04/21 13:11:21;;;;;;;13.95;8.02;;;;;;;;;;5080027;28;20031;-77
2022/04/21 13:13:47;;;;;;;12.82;7.88;;;;;;;;;;5082427;28;20102;-76
2022/04/21 13:16:13;;;;;;;13.95;7.35;;;;;;;;;;5074741;28;20482;-77
2022/04/21 13:18:39;;;;;;;12.82;7.45;;;;;;;;;;5081736;28;20024;-77
2022/04/21 13:23:50;;;;;;;13.50;8.48;;;;;;;;;;5075778;28;20145;-77
2022/04/21 13:26:16;;;;;;;14.73;8.80;;;;;;;;;;5075280;28;20075;-77
2022/04/21 13:28:42;;;;;;;12.85;8.05;;;;;;;;;;5083304;28;20063;-77
2022/04/21 13:33:54;;;;;;;12.68;8.25;;;;;;;;;;5072610;28;20086;-77
2022/04/21 13:36:20;;;;;;;15.73;8.52;;;;;;;;;;5072576;28;20024;-75
2022/04/21 13:38:46;;;;;;;12.88;8.05;;;;;;;;;;5084143;28;20058;-76
2022/04/21 13:41:12;;;;;;;14.80;8.02;;;;;;;;;;5079375;28;20024;-76
2022/04/21 13:43:38;;;;;;;10.45;7.45;;;;;;;;;;5077756;28;20033;-76
2022/04/21 13:46:04;;;;;;;13.13;8.52;;;;;;;;;;5080741;28;20096;-76
2022/04/21 13:48:30;;;;;;;12.85;8.65;;;;;;;;;;5074224;28;20039;-77
2022/04/21 13:50:56;;;;;;;14.30;8.85;;;;;;;;;;5076727;28;20036;-75
2022/04/21 13:53:23;;;;;;;11.90;8.07;;;;;;;;;;5073331;28;20399;-75
2022/04/21 13:55:49;;;;;;;11.93;7.95;;;;;;;;;;5078865;28;20040;-76
2022/04/21 13:58:15;;;;;;;15.65;8.13;;;;;;;;;;5072683;28;20085;-76
2022/04/21 14:00:45;;;;;;;13.73;7.55;;;;;;;;;;5076298;28;20489;-75
2022/04/21 14:03:12;;;;;;;15.00;8.32;;;;;;;;;;5076752;28;20078;-77
2022/04/21 14:05:39;;;;;;;10.73;7.75;;;;;;;;;;5077360;28;20048;-77
2022/04/21 14:08:05;;;;;;;16.42;8.65;;;;;;;;;;5078558;28;20038;-76
2022/04/21 14:10:31;;;;;;;12.15;7.85;;;;;;;;;;5077666;28;20381;-74
2022/04/21 14:12:57;;;;;;;13.68;7.50;;;;;;;;;;5090727;28;20047;-77
2022/04/21 14:15:24;;;;;;;12.15;8.88;;;;;;;;;;5074928;28;20040;-76
2022/04/21 14:17:50;;;;;;;14.00;8.93;;;;;;;;;;5082253;28;20029;-77
2022/04/21 14:20:17;;;;;;;11.68;7.55;;;;;;;;;;5081381;28;20035;-76
2022/04/21 14:22:43;;;;;;;13.60;7.50;;;;;;;;;;5086335;28;20048;-75
2022/04/21 14:25:09;;;;;;;13.90;9.27;;;;;;;;;;5076689;28;20033;-76
2022/04/21 14:27:35;;;;;;;14.30;8.38;;;;;;;;;;5080450;28;20055;-75
2022/04/21 14:30:03;;;;;;;13.40;7.90;;;;;;;;;;5076697;28;20033;-76
2022/04/21 14:32:29;;;;;;;15.68;10.30;;;;;;;;;;5072777;28;20040;-76
2022/04/21 14:34:55;;;;;;;16.42;9.57;;;;;;;;;;5078272;28;20024;-77
2022/04/21 14:45:36;;;;;;;12.07;7.80;;;;;;;;;;5075733;28;20062;-76
2022/04/21 14:48:03;;;;;;;11.18;8.35;;;;;;;;;;5079946;28;20390;-76
2022/04/21 14:50:29;;;;;;;11.57;7.68;;;;;;;;;;5077420;28;20511;-76
2022/04/21 14:52:55;;;;;;;11.25;6.93;;;;;;;;;;5076623;28;20075;-75
2022/04/21 14:55:21;;;;;;;10.35;7.20;;;;;;;;;;5077909;28;20406;-76
2022/04/21 14:57:47;;;;;;;12.30;7.80;;;;;;;;;;5078220;28;20079;-76
2022/04/21 15:00:13;;;;;;;12.70;7.93;;;;;;;;;;5082261;28;20033;-77
2022/04/21 15:02:40;;;;;;;10.60;7.05;;;;;;;;;;5070133;28;20059;-76
2022/04/21 15:05:06;;;;;;;10.73;7.00;;;;;;;;;;5080022;28;20033;-76
2022/04/21 15:07:32;;;;;;;11.20;6.95;;;;;;;;;;5072425;28;20510;-77
2022/04/21 15:09:58;;;;;;;14.52;7.25;;;;;;;;;;5075051;28;20076;-76
2022/04/21 15:12:24;;;;;;;12.82;7.72;;;;;;;;;;5075100;28;20028;-76
2022/04/21 15:14:50;;;;;;;10.52;7.38;;;;;;;;;;5070302;28;20024;-76
2022/04/21 15:17:17;;;;;;;13.02;7.10;;;;;;;;;;5075447;28;20133;-76
2022/04/21 15:19:47;;;;;;;15.88;8.38;;;;;;;;;;5078281;28;20023;-77
2022/04/21 15:22:15;;;;;;;15.73;9.52;;;;;;;;;;5074364;28;20024;-76
2022/04/21 15:24:42;;;;;;;17.17;8.13;;;;;;;;;;5077925;28;20024;-75
2022/04/21 15:27:08;;;;;;;14.23;10.25;;;;;;;;;;5078250;28;20051;-75
2022/04/21 15:29:35;;;;;;;10.95;8.15;;;;;;;;;;5072130;28;21799;-75
2022/04/21 15:32:01;;;;;;;11.43;7.25;;;;;;;;;;5077348;28;20025;-75
2022/04/21 15:34:27;;;;;;;13.35;8.00;;;;;;;;;;5074926;28;20042;-75
2022/04/21 15:36:53;;;;;;;14.73;9.32;;;;;;;;;;5077377;28;20040;-74